Terminal Aerodrome Forecast
Issued by NWS Jackson, MS

Home | Current Version | Previous Version | Text Only | Print | Product List | Glossary On
Versions: 1 2 3 4 5 6 7 8 9 10 11 12 13
244
FTUS44 KJAN 251722
TAFGWO
TAF
KGWO 251722Z 2518/2618 10004KT P6SM VCTS SCT050CB
     FM260200 00000KT 6SM BR SCT250
     FM261000 00000KT 4SM BR SKC
     FM261400 09004KT P6SM SCT250=

USA.gov is the U.S. government's official web portal to all federal, state and local government web resources and services.